Hlavní strana
METAR-TAF:

METAR-TAF

Letiště :

Sinop, Turecko

zeměpisná šířka: 42-00-57N, zeměpisná délka: 035-03-59E, výška: 7 m

Aktuální stav počasí

Zpráva byla vytvořena před 13 hodinami a 5 minutami, v 11:50 UTC
Severoseverovýchodní vítr 6 kt
Teplota 23°C
Vlhkost vzduchu 61%
Tlak 1016 hPa
Viditelnost 10 km a více
Žádná oblačnost pod 1500 m, nevyskytují se cumulonimby.

METAR: LTCM 261150Z 03006KT CAVOK 23/15 Q1016

Čas: 03:55 (00:55 UTC)

Předpověď počasí

Zpráva byla vytvořena před 11 hodinami a 15 minutami, v 13:40 UTC
Předpověď platná od 26 v 15 UTC do 26 v 24 UTC
vítr z různých směrů 2 kt
Viditelnost 10 km a více
Žádná oblačnost pod 1500 m, nevyskytují se cumulonimby.

TAF: LTCM 261340Z 2615/2624 VRB02KT CAVOK

Stav a předpovědi počasí z více než 4 000 letišť (zprávy METAR a TAF).

Červené a žluté tečky na mapě představují dostupné meteorologické stanice.

Když kurzor umístíte na tečku, zobrazí se název stanice.

Pak kliknutím zobrazíte stav a předpověď počasí.

Chcete-li změnit mapu, kliknutím na zelené tlačítko se znaménkem +mapu přiblížíte, kliknutím na zelené tlačítko se znaménkem – mapu oddálíte a kliknutím na zelené šipky přejdete na sousední mapy.


METAR-TAF: